createdAt,value
2023-05-14T00:02:26.981Z,7.85
2023-05-14T00:05:29.095Z,6.20
2023-05-14T00:08:30.840Z,5.43
2023-05-14T00:11:32.670Z,5.75
2023-05-14T00:14:34.598Z,7.50
2023-05-14T00:17:37.261Z,6.15
2023-05-14T00:20:39.210Z,6.80
2023-05-14T00:23:40.961Z,5.40
2023-05-14T00:26:42.724Z,4.97
2023-05-14T00:29:45.725Z,5.60
2023-05-14T00:32:47.709Z,7.35
2023-05-14T00:35:49.623Z,5.45
2023-05-14T00:38:51.515Z,7.00
2023-05-14T00:41:53.400Z,4.13
2023-05-14T00:44:55.552Z,7.47
2023-05-14T00:47:57.415Z,5.32
2023-05-14T00:50:59.449Z,4.53
2023-05-14T00:54:02.060Z,4.60
2023-05-14T00:57:06.273Z,5.18
2023-05-14T01:00:09.056Z,4.53
2023-05-14T01:03:10.912Z,4.93
2023-05-14T01:06:23.965Z,6.35
2023-05-14T01:09:36.493Z,5.93
2023-05-14T01:12:57.115Z,4.30
2023-05-14T01:16:01.151Z,3.88
2023-05-14T01:19:08.023Z,6.15
2023-05-14T01:22:10.734Z,6.88
2023-05-14T01:25:13.349Z,4.22
2023-05-14T01:28:32.554Z,4.55
2023-05-14T01:31:39.138Z,4.28
2023-05-14T01:34:41.986Z,4.80
2023-05-14T01:37:44.807Z,5.53
2023-05-14T01:40:50.398Z,4.53
2023-05-14T01:43:52.539Z,7.15
2023-05-14T01:46:54.274Z,5.90
2023-05-14T01:49:56.179Z,5.43
2023-05-14T01:52:58.025Z,5.43
2023-05-14T01:55:59.757Z,5.18
2023-05-14T01:59:01.492Z,5.13
2023-05-14T02:02:03.913Z,4.80
2023-05-14T02:05:07.118Z,6.78
2023-05-14T02:08:08.996Z,4.60
2023-05-14T02:11:10.999Z,4.78
2023-05-14T02:14:12.896Z,8.70
2023-05-14T02:17:17.721Z,5.40
2023-05-14T02:20:19.712Z,5.35
2023-05-14T02:23:31.075Z,4.70
2023-05-14T02:26:40.006Z,4.75
2023-05-14T02:29:41.923Z,6.28
2023-05-14T02:37:12.008Z,5.15
2023-05-14T02:40:13.949Z,4.45
2023-05-14T02:43:15.956Z,7.53
2023-05-14T02:46:17.755Z,4.53
2023-05-14T02:49:19.656Z,4.45
2023-05-14T02:52:21.426Z,4.22
2023-05-14T02:55:26.507Z,3.70
2023-05-14T02:58:28.618Z,4.65
2023-05-14T03:01:30.867Z,4.45
2023-05-14T03:04:33.005Z,5.43
2023-05-14T03:07:34.699Z,5.07
2023-05-14T03:10:37.132Z,4.57
2023-05-14T03:13:38.838Z,5.70
2023-05-14T03:16:42.383Z,4.60
2023-05-14T03:19:44.459Z,5.28
2023-05-14T03:22:46.282Z,4.07
2023-05-14T03:25:49.139Z,6.10
2023-05-14T03:28:51.092Z,4.45
2023-05-14T03:31:54.448Z,4.82
2023-05-14T03:34:56.349Z,4.45
2023-05-14T03:37:59.395Z,5.40
2023-05-14T03:41:01.597Z,4.85
2023-05-14T03:44:03.381Z,5.78
2023-05-14T03:47:05.276Z,5.57
2023-05-14T03:50:08.073Z,4.78
2023-05-14T03:53:09.854Z,5.00
2023-05-14T03:56:11.646Z,5.00
2023-05-14T03:59:13.474Z,4.55
2023-05-14T04:02:15.720Z,6.93
2023-05-14T04:05:17.734Z,9.60
2023-05-14T04:08:20.440Z,4.32
2023-05-14T04:11:22.230Z,3.97
2023-05-14T04:14:25.068Z,4.40
2023-05-14T04:17:27.657Z,4.70
2023-05-14T04:20:29.453Z,6.57
2023-05-14T04:23:32.050Z,6.47
2023-05-14T04:26:33.880Z,6.78
2023-05-14T04:29:35.612Z,6.22
2023-05-14T04:32:38.058Z,5.10
2023-05-14T04:35:39.832Z,3.92
2023-05-14T04:38:41.832Z,8.60
2023-05-14T04:41:43.618Z,3.28
2023-05-14T04:44:45.450Z,4.28
2023-05-14T04:47:47.329Z,4.03
2023-05-14T04:50:49.221Z,4.70
2023-05-14T04:53:51.005Z,3.95
2023-05-14T04:56:52.745Z,4.90
2023-05-14T04:59:54.474Z,4.22
2023-05-14T05:02:56.442Z,4.57
2023-05-14T05:05:58.366Z,5.18
2023-05-14T05:09:01.993Z,4.75
2023-05-14T05:12:04.421Z,5.15
2023-05-14T05:15:07.181Z,3.50
2023-05-14T05:18:09.178Z,4.35
2023-05-14T05:21:11.011Z,4.97
2023-05-14T05:24:13.458Z,7.00
2023-05-14T05:27:15.208Z,5.00
2023-05-14T05:30:16.986Z,4.32
2023-05-14T05:33:19.877Z,4.13
2023-05-14T05:36:21.600Z,4.50
2023-05-14T05:39:23.372Z,3.47
2023-05-14T05:42:26.186Z,3.13
2023-05-14T05:45:28.009Z,5.25
2023-05-14T05:48:29.836Z,4.78
2023-05-14T05:51:31.934Z,3.97
2023-05-14T05:54:34.355Z,4.07
2023-05-14T05:57:36.176Z,7.05
2023-05-14T06:00:38.121Z,4.78
2023-05-14T06:03:39.933Z,4.10
2023-05-14T06:06:42.029Z,7.05
2023-05-14T06:09:43.788Z,4.43
2023-05-14T06:12:45.741Z,5.15
2023-05-14T06:15:47.860Z,6.70
2023-05-14T06:18:49.674Z,3.50
2023-05-14T06:21:51.396Z,4.35
2023-05-14T06:24:53.256Z,4.75
2023-05-14T06:27:55.030Z,5.35
2023-05-14T06:30:56.978Z,3.35
2023-05-14T06:33:58.741Z,4.13
2023-05-14T06:37:02.803Z,4.47
2023-05-14T06:40:05.740Z,4.25
2023-05-14T06:43:07.631Z,5.07
2023-05-14T06:46:09.377Z,9.13
2023-05-14T06:49:11.124Z,3.63
2023-05-14T06:52:12.970Z,5.72
2023-05-14T06:55:14.782Z,4.43
2023-05-14T06:58:16.650Z,3.15
2023-05-14T07:01:18.451Z,3.40
2023-05-14T07:04:20.347Z,7.78
2023-05-14T07:07:24.014Z,3.35
2023-05-14T07:10:26.430Z,5.90
2023-05-14T07:13:28.865Z,4.22
2023-05-14T07:16:30.970Z,4.75
2023-05-14T07:19:32.802Z,3.78
2023-05-14T07:22:34.517Z,5.53
2023-05-14T07:25:36.427Z,3.92
2023-05-14T07:28:38.173Z,6.18
2023-05-14T07:31:40.007Z,6.15
2023-05-14T07:34:41.886Z,8.52
2023-05-14T07:37:44.200Z,4.18
2023-05-14T07:40:46.062Z,3.80
2023-05-14T07:43:47.986Z,3.05
2023-05-14T07:46:49.823Z,4.38
2023-05-14T07:49:56.180Z,3.80
2023-05-14T07:52:58.345Z,8.82
2023-05-14T07:56:00.279Z,3.63
2023-05-14T07:59:02.174Z,5.15
2023-05-14T08:02:04.047Z,5.45
2023-05-14T08:05:06.488Z,7.38
2023-05-14T08:08:08.206Z,5.05
2023-05-14T08:11:10.036Z,5.35
2023-05-14T08:14:11.975Z,4.65
2023-05-14T08:17:13.827Z,3.10
2023-05-14T08:20:15.701Z,5.05
2023-05-14T08:23:52.608Z,6.55
2023-05-14T08:26:54.635Z,4.30
2023-05-14T08:29:58.491Z,5.18
2023-05-14T08:33:00.699Z,4.45
2023-05-14T08:36:03.633Z,3.03
2023-05-14T08:39:08.165Z,6.93
2023-05-14T08:42:15.722Z,6.35
2023-05-14T08:48:23.080Z,3.17
2023-05-14T08:51:27.733Z,5.18
2023-05-14T08:54:32.579Z,3.33
2023-05-14T08:57:34.975Z,3.03
2023-05-14T09:00:37.689Z,7.72
2023-05-14T09:03:43.037Z,6.57
2023-05-14T09:06:49.880Z,3.80
2023-05-14T09:09:53.724Z,5.32
2023-05-14T09:12:56.291Z,3.85
2023-05-14T09:15:59.138Z,4.80
2023-05-14T09:19:01.028Z,7.00
2023-05-14T09:22:12.602Z,8.05
2023-05-14T09:25:14.411Z,3.28
2023-05-14T09:28:17.731Z,3.17
2023-05-14T09:31:19.745Z,3.80
2023-05-14T09:34:32.804Z,3.33
2023-05-14T09:37:36.733Z,3.00
2023-05-14T09:40:38.561Z,2.30
2023-05-14T09:43:40.252Z,5.68
2023-05-14T09:46:42.280Z,16.55
2023-05-14T09:49:45.151Z,5.07
2023-05-14T09:52:46.847Z,4.45
2023-05-14T09:55:49.417Z,8.80
2023-05-14T09:58:51.230Z,7.47
2023-05-14T10:01:54.926Z,8.15
2023-05-14T10:05:02.702Z,6.20
2023-05-14T10:08:27.614Z,3.55
2023-05-14T10:11:33.679Z,5.93
2023-05-14T10:14:47.369Z,3.42
2023-05-14T10:17:55.830Z,3.28
2023-05-14T10:21:05.680Z,10.55
2023-05-14T10:24:08.425Z,2.92
2023-05-14T10:27:10.610Z,9.27
2023-05-14T10:30:13.058Z,3.08
2023-05-14T10:33:16.845Z,4.70
2023-05-14T10:36:18.931Z,2.35
2023-05-14T10:39:20.755Z,5.07
2023-05-14T10:42:23.627Z,4.30
2023-05-14T10:45:25.575Z,4.15
2023-05-14T10:48:27.746Z,2.40
2023-05-14T10:51:30.260Z,14.95
2023-05-14T10:54:35.811Z,5.90
2023-05-14T10:57:40.108Z,4.03
2023-05-14T11:00:42.050Z,3.63
2023-05-14T11:03:46.525Z,6.50
2023-05-14T11:06:48.659Z,2.72
2023-05-14T11:09:51.495Z,4.40
2023-05-14T11:12:53.206Z,7.03
2023-05-14T11:15:56.649Z,6.63
2023-05-14T11:19:03.788Z,4.65
2023-05-14T11:22:05.737Z,4.72
2023-05-14T11:25:10.139Z,1.63
2023-05-14T11:28:12.140Z,3.17
2023-05-14T11:31:31.763Z,5.43
2023-05-14T11:34:38.729Z,1.30
2023-05-14T11:37:40.749Z,7.45
2023-05-14T11:40:43.148Z,2.42
2023-05-14T11:43:44.897Z,2.63
2023-05-14T11:46:57.248Z,3.47
2023-05-14T11:50:00.887Z,2.17
2023-05-14T11:53:02.696Z,2.30
2023-05-14T11:56:04.957Z,4.22
2023-05-14T11:59:07.935Z,2.63
2023-05-14T12:02:14.949Z,2.13
2023-05-14T12:05:16.782Z,4.50
2023-05-14T12:08:32.148Z,3.20
2023-05-14T12:11:36.384Z,4.15
2023-05-14T12:14:42.910Z,3.75
2023-05-14T12:17:50.717Z,3.58
2023-05-14T12:20:52.570Z,4.10
2023-05-14T12:24:00.184Z,2.30
2023-05-14T12:27:03.159Z,6.57
2023-05-14T12:30:20.614Z,12.55
2023-05-14T12:33:26.696Z,5.35
2023-05-14T12:36:28.770Z,3.72
2023-05-14T12:39:33.813Z,3.60
2023-05-14T12:42:35.817Z,4.57
2023-05-14T12:45:37.686Z,13.50
2023-05-14T12:48:39.498Z,3.05
2023-05-14T12:51:41.207Z,4.15
2023-05-14T12:54:43.507Z,5.25
2023-05-14T12:57:45.474Z,6.10
2023-05-14T13:00:47.271Z,2.47
2023-05-14T13:03:49.296Z,3.42
2023-05-14T13:06:51.118Z,10.13
2023-05-14T13:09:52.923Z,4.00
2023-05-14T13:12:56.378Z,3.25
2023-05-14T13:15:58.132Z,3.97
2023-05-14T13:18:59.901Z,5.35
2023-05-14T13:22:01.670Z,3.90
2023-05-14T13:25:03.554Z,9.05
2023-05-14T13:28:05.739Z,7.15
2023-05-14T13:31:12.788Z,5.20
2023-05-14T13:34:14.842Z,4.45
2023-05-14T13:37:16.777Z,4.60
2023-05-14T13:40:18.695Z,5.63
2023-05-14T13:43:20.528Z,4.47
2023-05-14T13:46:22.380Z,4.78
2023-05-14T13:49:24.120Z,4.47
2023-05-14T13:52:26.582Z,4.05
2023-05-14T13:55:28.339Z,3.10
2023-05-14T13:58:30.492Z,7.10
2023-05-14T14:01:32.283Z,6.43
2023-05-14T14:04:34.254Z,5.55
2023-05-14T14:07:36.039Z,6.90
2023-05-14T14:10:40.911Z,4.53
2023-05-14T14:13:43.802Z,3.55
2023-05-14T14:16:47.464Z,5.30
2023-05-14T14:19:49.237Z,7.50
2023-05-14T14:22:51.012Z,11.13
2023-05-14T14:25:52.757Z,4.10
2023-05-14T14:28:54.656Z,7.18
2023-05-14T14:31:56.567Z,4.28
2023-05-14T14:34:58.433Z,11.50
2023-05-14T14:38:00.124Z,3.17
2023-05-14T14:41:07.100Z,5.97
2023-05-14T14:44:08.876Z,4.30
2023-05-14T14:47:10.645Z,8.02
2023-05-14T14:50:13.321Z,3.70
2023-05-14T14:53:15.100Z,10.07
2023-05-14T14:56:16.844Z,8.40
2023-05-14T14:59:18.565Z,3.53
2023-05-14T15:02:20.437Z,6.53
2023-05-14T15:05:22.309Z,2.90
2023-05-14T15:08:28.211Z,3.28
2023-05-14T15:11:30.224Z,6.55
2023-05-14T15:14:31.924Z,5.00
2023-05-14T15:17:33.907Z,11.90
2023-05-14T15:20:35.803Z,5.13
2023-05-14T15:23:37.602Z,5.22
2023-05-14T15:26:39.732Z,6.28
2023-05-14T15:29:41.631Z,5.40
2023-05-14T15:32:44.617Z,6.22
2023-05-14T15:35:46.417Z,5.95
2023-05-14T15:38:48.342Z,7.22
2023-05-14T15:41:50.147Z,17.15
2023-05-14T15:44:51.921Z,6.28
2023-05-14T15:47:53.892Z,7.18
2023-05-14T15:50:55.934Z,3.80
2023-05-14T15:53:57.821Z,8.13
2023-05-14T15:56:59.668Z,8.18
2023-05-14T16:00:01.804Z,7.32
2023-05-14T16:03:06.402Z,16.67
2023-05-14T16:06:08.272Z,13.23
2023-05-14T16:09:10.151Z,11.25
2023-05-14T16:12:12.550Z,17.55
2023-05-14T16:15:14.322Z,22.70
2023-05-14T16:18:16.410Z,13.45
2023-05-14T16:21:18.194Z,15.00
2023-05-14T16:24:19.986Z,9.93
2023-05-14T16:27:25.068Z,7.82
2023-05-14T16:30:26.975Z,8.10
2023-05-14T16:33:28.770Z,4.90
2023-05-14T16:36:31.446Z,3.28
2023-05-14T16:39:33.185Z,7.82
2023-05-14T16:42:34.891Z,8.20
2023-05-14T16:45:37.493Z,9.18
2023-05-14T16:48:39.420Z,6.88
2023-05-14T16:51:43.244Z,6.10
2023-05-14T16:54:45.045Z,5.93
2023-05-14T16:57:46.812Z,7.68
2023-05-14T17:00:48.472Z,5.97
2023-05-14T17:03:50.209Z,6.35
2023-05-14T17:06:54.518Z,4.80
2023-05-14T17:09:56.379Z,5.53
2023-05-14T17:12:58.079Z,3.47
2023-05-14T17:16:00.634Z,6.88
2023-05-14T17:19:02.487Z,12.63
2023-05-14T17:22:05.959Z,8.30
2023-05-14T17:25:08.784Z,8.32
2023-05-14T17:28:10.664Z,12.23
2023-05-14T17:31:12.407Z,9.75
2023-05-14T17:34:14.224Z,12.45
2023-05-14T17:37:16.263Z,11.18
2023-05-14T17:40:18.102Z,9.98
2023-05-14T17:43:19.900Z,7.68
2023-05-14T17:46:21.657Z,5.35
2023-05-14T17:49:23.463Z,9.63
2023-05-14T17:52:25.419Z,8.77
2023-05-14T17:55:27.315Z,7.30
2023-05-14T17:58:29.047Z,6.40
2023-05-14T18:01:31.005Z,6.38
2023-05-14T18:04:32.926Z,7.10
2023-05-14T18:07:36.217Z,11.07
2023-05-14T18:10:46.054Z,12.18
2023-05-14T18:13:47.757Z,12.68
2023-05-14T18:16:50.299Z,13.18
2023-05-14T18:19:54.991Z,15.27
2023-05-14T18:22:56.807Z,16.08
2023-05-14T18:25:59.398Z,16.20
2023-05-14T18:29:01.282Z,16.90
2023-05-14T18:32:03.254Z,14.95
2023-05-14T18:35:07.885Z,16.23
2023-05-14T18:38:11.917Z,11.82
2023-05-14T18:41:13.699Z,14.32
2023-05-14T18:44:15.400Z,13.27
2023-05-14T18:47:17.118Z,12.82
2023-05-14T18:50:21.422Z,10.85
2023-05-14T18:53:23.229Z,10.10
2023-05-14T18:56:25.746Z,10.75
2023-05-14T18:59:27.591Z,10.65
2023-05-14T19:02:29.381Z,6.93
2023-05-14T19:05:31.339Z,7.82
2023-05-14T19:08:33.243Z,6.90
2023-05-14T19:11:35.054Z,9.05
2023-05-14T19:14:36.824Z,7.55
2023-05-14T19:17:38.878Z,7.68
2023-05-14T19:20:40.722Z,11.02
2023-05-14T19:23:42.645Z,6.88
2023-05-14T19:26:44.716Z,8.10
2023-05-14T19:29:46.765Z,7.65
2023-05-14T19:32:49.356Z,6.75
2023-05-14T19:35:51.338Z,10.80
2023-05-14T19:38:53.049Z,7.75
2023-05-14T19:41:54.840Z,9.15
2023-05-14T19:44:56.577Z,6.03
2023-05-14T19:47:58.376Z,7.07
2023-05-14T19:51:00.287Z,8.68
2023-05-14T19:54:02.087Z,7.13
2023-05-14T19:57:04.428Z,8.60
2023-05-14T20:00:08.880Z,7.70
2023-05-14T20:03:12.286Z,10.13
2023-05-14T20:06:17.519Z,13.32
2023-05-14T20:09:20.135Z,13.18
2023-05-14T20:12:21.922Z,14.73
2023-05-14T20:15:23.684Z,14.63
2023-05-14T20:18:25.921Z,14.77
2023-05-14T20:21:27.623Z,19.60
2023-05-14T20:24:29.468Z,12.95
2023-05-14T20:27:32.749Z,9.55
2023-05-14T20:30:37.624Z,9.15
2023-05-14T20:33:39.560Z,7.38
2023-05-14T20:36:41.898Z,10.50
2023-05-14T20:39:43.973Z,11.88
2023-05-14T20:42:45.812Z,9.35
2023-05-14T20:45:47.601Z,11.93
2023-05-14T20:48:49.572Z,12.32
2023-05-14T20:51:51.346Z,14.20
2023-05-14T20:54:53.548Z,12.18
2023-05-14T20:57:55.578Z,12.20
2023-05-14T21:00:58.585Z,10.25
2023-05-14T21:04:01.680Z,10.27
2023-05-14T21:07:06.886Z,10.05
2023-05-14T21:10:09.305Z,12.50
2023-05-14T21:13:11.240Z,12.30
2023-05-14T21:16:13.214Z,11.05
2023-05-14T21:19:15.537Z,12.50
2023-05-14T21:22:18.814Z,9.80
2023-05-14T21:25:20.659Z,10.65
2023-05-14T21:28:22.685Z,12.00
2023-05-14T21:31:24.423Z,11.40
2023-05-14T21:34:26.316Z,11.25
2023-05-14T21:37:28.138Z,11.48
2023-05-14T21:40:30.015Z,9.40
2023-05-14T21:43:31.750Z,11.13
2023-05-14T21:46:33.872Z,11.82
2023-05-14T21:49:35.826Z,12.27
2023-05-14T21:52:38.491Z,14.50
2023-05-14T21:55:40.530Z,9.85
2023-05-14T21:58:42.345Z,11.52
2023-05-14T22:04:48.740Z,12.00
2023-05-14T22:07:50.678Z,12.52
2023-05-14T22:10:52.392Z,12.38
2023-05-14T22:13:54.246Z,10.88
2023-05-14T22:16:57.704Z,14.70
2023-05-14T22:19:59.500Z,13.88
2023-05-14T22:23:01.315Z,12.80
2023-05-14T22:26:03.914Z,9.00
2023-05-14T22:29:05.757Z,10.98
2023-05-14T22:32:08.277Z,10.77
2023-05-14T22:35:10.281Z,10.52
2023-05-14T22:38:13.656Z,8.98
2023-05-14T22:41:17.587Z,8.02
2023-05-14T22:44:19.404Z,9.13
2023-05-14T22:47:21.184Z,6.93
2023-05-14T22:50:23.220Z,8.50
2023-05-14T22:53:25.325Z,8.30
2023-05-14T22:56:28.050Z,7.85
2023-05-14T22:59:29.821Z,7.03
2023-05-14T23:02:31.801Z,8.20
2023-05-14T23:05:33.537Z,7.90
2023-05-14T23:08:35.310Z,5.43
2023-05-14T23:11:37.134Z,6.55
2023-05-14T23:14:38.923Z,7.22
2023-05-14T23:17:40.813Z,4.40
2023-05-14T23:20:45.318Z,6.22
2023-05-14T23:23:48.560Z,3.60
2023-05-14T23:26:50.379Z,3.28
2023-05-14T23:29:52.161Z,5.40
2023-05-14T23:32:54.186Z,5.70
2023-05-14T23:35:56.081Z,4.03
2023-05-14T23:38:58.942Z,4.20
2023-05-14T23:42:00.933Z,7.57
2023-05-14T23:45:02.693Z,7.70
2023-05-14T23:48:05.006Z,8.50
2023-05-14T23:51:06.788Z,8.05
2023-05-14T23:54:08.524Z,6.22
2023-05-14T23:57:13.002Z,6.28
